NCAR-RAP Real-Time Weather Data

Output produced by METARs form (17 December 2018  06:52 UTC)
found at http://weather.rap.ucar.edu/surface/
 
RJOY 170600Z 27016KT 9999 FEW015 SCT040 BKN080 12/05 Q1009
RJOY 170500Z 26012KT 220V290 9999 FEW020 13/04 Q1009
RJOY 170400Z 26010KT 210V290 9999 FEW015 SCT040 13/05 Q1009
RJOY 170300Z 27013KT 220V300 9999 FEW015 SCT060 13/06 Q1010
RJOY 170200Z 27007KT 9999 FEW003 SCT050 12/08 Q1011
RJOY 170100Z 26004KT 220V310 6000 BR FEW003 SCT012 BKN050 11/09 Q1012
RJOY 170025Z VRB02KT 5000 BR FEW004 SCT012 BKN020 10/09 Q1012 RMK 1ST004 4CU012 5CU020 A2989
RJOY 170000Z 18003KT 120V230 4500 BR FEW003 SCT015 BKN050 09/08 Q1012
RJOY 162300Z VRB01KT 5000 BR FEW003 SCT015 BKN020 08/08 Q1011
RJOY 161000Z VRB02KT 9999 -RA FEW020 BKN050 09/06 Q1018
RJOY 160900Z 27003KT 240V300 9999 -RA FEW020 BKN050 09/05 Q1018
RJOY 160800Z 03003KT 9999 -RA FEW025 SCT050 BKN070 10/04 Q1018
RJOY 160700Z 33006KT 9999 VCSH FEW030 SCT060 BKN080 11/02 Q1019
RJOY 160600Z 03004KT 350V060 9999 FEW030 SCT070 BKN090 12/01 Q1020
RJOY 160500Z 04004KT 360V070 9999 FEW030 SCT090 BKN110 12/01 Q1020
RJOY 160400Z VRB02KT 9999 FEW035 BKN/// 12/01 Q1022
RJOY 160300Z 02003KT 330V060 9999 FEW035 SCT130 BKN/// 10/M01 Q1023
RJOY 160200Z 05004KT 360V110 9999 FEW030 BKN/// 09/M00 Q1024
RJOY 160100Z 36004KT 320V040 9999 FEW030 BKN/// 06/M02 Q1025
RJOY 160000Z VRB02KT 9999 FEW030 BKN/// 05/M01 Q1025
RJOY 151000Z 04002KT 9999 FEW050 05/M02 Q1029
RJOY 150900Z 06005KT 9999 FEW030 SCT050 06/M02 Q1029
RJOY 150800Z 02005KT 350V050 9999 FEW030 BKN050 08/M03 Q1029
RJOY 150700Z 34008KT 9999 FEW030 SCT050 09/M03 Q1029
RJOY 150600Z 34008KT 310V020 9999 FEW030 BKN050 08/M03 Q1029
RJOY 150500Z 02009KT 340V050 9999 FEW030 BKN050 10/M03 Q1028
RJOY 150400Z 33009KT 290V020 9999 FEW030 BKN050 09/M04 Q1029
RJOY 150300Z 29004KT 250V330 9999 FEW030 SCT045 08/M02 Q1030
RJOY 150200Z 27003KT 220V310 9999 FEW025 BKN060 07/M01 Q1030
RJOY 150100Z 32005KT 280V010 9999 FEW025 BKN060 07/M00 Q1031
RJOY 150000Z VRB02KT 9999 FEW025 BKN060 06/01 Q1030
RJOY 142300Z VRB01KT 9999 FEW025 BKN070 05/02 Q1030